sensor_id;sensor_type;location;lat;lon;timestamp;pressure;altitude;pressure_sealevel;temperature;humidity
35577;BME280;21680;52.400;16.920;2023-03-18T00:01:11;100678.13;;;3.77;56.11
35577;BME280;21680;52.400;16.920;2023-03-18T00:03:36;100674.98;;;3.75;56.24
35577;BME280;21680;52.400;16.920;2023-03-18T00:06:14;100677.84;;;3.72;56.24
35577;BME280;21680;52.400;16.920;2023-03-18T00:08:41;100674.35;;;3.69;56.20
35577;BME280;21680;52.400;16.920;2023-03-18T00:11:08;100673.16;;;3.67;56.33
35577;BME280;21680;52.400;16.920;2023-03-18T00:13:36;100673.02;;;3.64;56.35
35577;BME280;21680;52.400;16.920;2023-03-18T00:16:03;100672.17;;;3.61;56.49
35577;BME280;21680;52.400;16.920;2023-03-18T00:18:29;100670.42;;;3.59;56.61
35577;BME280;21680;52.400;16.920;2023-03-18T00:20:55;100669.74;;;3.58;56.45
35577;BME280;21680;52.400;16.920;2023-03-18T00:23:24;100665.70;;;3.56;56.52
35577;BME280;21680;52.400;16.920;2023-03-18T00:25:52;100662.36;;;3.55;56.62
35577;BME280;21680;52.400;16.920;2023-03-18T00:28:18;100665.21;;;3.54;56.60
35577;BME280;21680;52.400;16.920;2023-03-18T00:30:43;100666.46;;;3.53;56.73
35577;BME280;21680;52.400;16.920;2023-03-18T00:33:09;100662.58;;;3.53;56.76
35577;BME280;21680;52.400;16.920;2023-03-18T00:35:35;100656.23;;;3.52;56.72
35577;BME280;21680;52.400;16.920;2023-03-18T00:38:03;100653.23;;;3.51;56.89
35577;BME280;21680;52.400;16.920;2023-03-18T00:40:31;100651.16;;;3.49;56.93
35577;BME280;21680;52.400;16.920;2023-03-18T00:43:11;100648.70;;;3.48;57.17
35577;BME280;21680;52.400;16.920;2023-03-18T00:45:37;100648.38;;;3.45;57.01
35577;BME280;21680;52.400;16.920;2023-03-18T00:48:05;100646.11;;;3.43;57.10
35577;BME280;21680;52.400;16.920;2023-03-18T00:50:33;100644.36;;;3.42;57.24
35577;BME280;21680;52.400;16.920;2023-03-18T00:52:58;100642.09;;;3.41;57.16
35577;BME280;21680;52.400;16.920;2023-03-18T00:55:24;100642.27;;;3.41;57.16
35577;BME280;21680;52.400;16.920;2023-03-18T00:57:51;100640.52;;;3.39;57.23
35577;BME280;21680;52.400;16.920;2023-03-18T01:00:18;100639.30;;;3.38;57.24
35577;BME280;21680;52.400;16.920;2023-03-18T01:02:43;100632.10;;;3.36;57.49
35577;BME280;21680;52.400;16.920;2023-03-18T01:05:12;100628.94;;;3.34;57.23
35577;BME280;21680;52.400;16.920;2023-03-18T01:07:38;100627.37;;;3.32;57.37
35577;BME280;21680;52.400;16.920;2023-03-18T01:10:04;100624.04;;;3.31;57.46
35577;BME280;21680;52.400;16.920;2023-03-18T01:12:30;100624.23;;;3.30;57.30
35577;BME280;21680;52.400;16.920;2023-03-18T01:14:56;100623.91;;;3.28;57.30
35577;BME280;21680;52.400;16.920;2023-03-18T01:17:22;100625.86;;;3.26;57.74
35577;BME280;21680;52.400;16.920;2023-03-18T01:19:48;100628.89;;;3.25;57.51
35577;BME280;21680;52.400;16.920;2023-03-18T01:22:13;100623.97;;;3.23;57.62
35577;BME280;21680;52.400;16.920;2023-03-18T01:24:39;100621.70;;;3.21;57.61
35577;BME280;21680;52.400;16.920;2023-03-18T01:27:05;100622.27;;;3.19;57.70
35577;BME280;21680;52.400;16.920;2023-03-18T01:29:32;100621.93;;;3.17;57.67
35577;BME280;21680;52.400;16.920;2023-03-18T01:31:57;100625.84;;;3.15;57.78
35577;BME280;21680;52.400;16.920;2023-03-18T01:34:23;100628.52;;;3.14;57.97
35577;BME280;21680;52.400;16.920;2023-03-18T01:36:49;100626.77;;;3.12;57.75
35577;BME280;21680;52.400;16.920;2023-03-18T01:39:15;100627.31;;;3.10;57.95
35577;BME280;21680;52.400;16.920;2023-03-18T01:41:42;100619.07;;;3.06;58.06
35577;BME280;21680;52.400;16.920;2023-03-18T01:44:20;100622.64;;;3.04;57.86
35577;BME280;21680;52.400;16.920;2023-03-18T01:46:47;100624.97;;;3.01;57.97
35577;BME280;21680;52.400;16.920;2023-03-18T01:51:51;100628.56;;;2.97;58.19
35577;BME280;21680;52.400;16.920;2023-03-18T01:54:18;100626.11;;;2.94;58.17
35577;BME280;21680;52.400;16.920;2023-03-18T01:56:45;100626.85;;;2.92;58.13
35577;BME280;21680;52.400;16.920;2023-03-18T01:59:13;100622.64;;;2.90;58.10
35577;BME280;21680;52.400;16.920;2023-03-18T02:01:45;100619.66;;;2.88;58.32
35577;BME280;21680;52.400;16.920;2023-03-18T02:04:12;100621.45;;;2.85;58.33
35577;BME280;21680;52.400;16.920;2023-03-18T02:06:37;100618.11;;;2.84;58.29
35577;BME280;21680;52.400;16.920;2023-03-18T02:09:04;100619.20;;;2.83;58.28
35577;BME280;21680;52.400;16.920;2023-03-18T02:11:32;100623.98;;;2.81;58.26
35577;BME280;21680;52.400;16.920;2023-03-18T02:13:59;100626.11;;;2.80;58.32
35577;BME280;21680;52.400;16.920;2023-03-18T02:16:54;100621.00;;;2.80;58.45
35577;BME280;21680;52.400;16.920;2023-03-18T02:19:32;100625.25;;;2.78;58.53
35577;BME280;21680;52.400;16.920;2023-03-18T02:25:03;100621.39;;;2.76;58.78
35577;BME280;21680;52.400;16.920;2023-03-18T02:27:34;100621.42;;;2.75;58.61
35577;BME280;21680;52.400;16.920;2023-03-18T02:30:06;100619.48;;;2.74;58.74
35577;BME280;21680;52.400;16.920;2023-03-18T02:32:33;100616.86;;;2.73;58.66
35577;BME280;21680;52.400;16.920;2023-03-18T02:35:00;100619.16;;;2.71;58.87
35577;BME280;21680;52.400;16.920;2023-03-18T02:37:29;100619.70;;;2.71;58.60
35577;BME280;21680;52.400;16.920;2023-03-18T02:39:54;100619.36;;;2.69;58.74
35577;BME280;21680;52.400;16.920;2023-03-18T02:42:29;100612.69;;;2.67;58.86
35577;BME280;21680;52.400;16.920;2023-03-18T02:44:56;100611.66;;;2.65;58.73
35577;BME280;21680;52.400;16.920;2023-03-18T02:47:24;100605.50;;;2.63;58.91
35577;BME280;21680;52.400;16.920;2023-03-18T02:49:52;100602.53;;;2.61;59.08
35577;BME280;21680;52.400;16.920;2023-03-18T02:52:17;100602.41;;;2.59;58.93
35577;BME280;21680;52.400;16.920;2023-03-18T02:54:42;100600.65;;;2.57;58.94
35577;BME280;21680;52.400;16.920;2023-03-18T02:57:08;100604.36;;;2.57;59.05
35577;BME280;21680;52.400;16.920;2023-03-18T02:59:33;100610.20;;;2.56;58.97
35577;BME280;21680;52.400;16.920;2023-03-18T03:01:59;100608.61;;;2.56;58.94
35577;BME280;21680;52.400;16.920;2023-03-18T03:04:25;100608.09;;;2.56;59.07
35577;BME280;21680;52.400;16.920;2023-03-18T03:06:53;100612.66;;;2.56;59.28
35577;BME280;21680;52.400;16.920;2023-03-18T03:09:19;100613.17;;;2.57;59.28
35577;BME280;21680;52.400;16.920;2023-03-18T03:11:46;100609.30;;;2.58;59.27
35577;BME280;21680;52.400;16.920;2023-03-18T03:14:13;100609.30;;;2.58;59.17
35577;BME280;21680;52.400;16.920;2023-03-18T03:16:39;100606.83;;;2.57;59.26
35577;BME280;21680;52.400;16.920;2023-03-18T03:19:05;100610.19;;;2.57;59.34
35577;BME280;21680;52.400;16.920;2023-03-18T03:21:31;100608.42;;;2.57;59.34
35577;BME280;21680;52.400;16.920;2023-03-18T03:23:58;100607.56;;;2.55;59.29
35577;BME280;21680;52.400;16.920;2023-03-18T03:26:23;100615.34;;;2.53;59.46
35577;BME280;21680;52.400;16.920;2023-03-18T03:28:49;100618.70;;;2.53;59.37
35577;BME280;21680;52.400;16.920;2023-03-18T03:31:15;100625.06;;;2.51;59.48
35577;BME280;21680;52.400;16.920;2023-03-18T03:33:41;100633.02;;;2.50;59.27
35577;BME280;21680;52.400;16.920;2023-03-18T03:36:10;100636.38;;;2.48;59.42
35577;BME280;21680;52.400;16.920;2023-03-18T03:38:36;100632.00;;;2.46;59.42
35577;BME280;21680;52.400;16.920;2023-03-18T03:41:02;100628.66;;;2.45;59.30
35577;BME280;21680;52.400;16.920;2023-03-18T03:43:29;100631.32;;;2.43;59.49
35577;BME280;21680;52.400;16.920;2023-03-18T03:45:54;100636.27;;;2.42;59.47
35577;BME280;21680;52.400;16.920;2023-03-18T03:48:19;100636.98;;;2.41;59.64
35577;BME280;21680;52.400;16.920;2023-03-18T03:50:45;100634.00;;;2.40;59.77
35577;BME280;21680;52.400;16.920;2023-03-18T03:53:11;100634.36;;;2.39;59.59
35577;BME280;21680;52.400;16.920;2023-03-18T03:55:36;100636.48;;;2.39;59.71
35577;BME280;21680;52.400;16.920;2023-03-18T03:58:03;100638.25;;;2.39;59.83
35577;BME280;21680;52.400;16.920;2023-03-18T04:00:28;100632.95;;;2.39;59.86
35577;BME280;21680;52.400;16.920;2023-03-18T04:02:55;100631.53;;;2.41;59.73
35577;BME280;21680;52.400;16.920;2023-03-18T04:05:23;100629.75;;;2.42;59.98
35577;BME280;21680;52.400;16.920;2023-03-18T04:07:49;100628.34;;;2.42;59.93
35577;BME280;21680;52.400;16.920;2023-03-18T04:10:17;100633.63;;;2.42;59.99
35577;BME280;21680;52.400;16.920;2023-03-18T04:12:43;100633.10;;;2.42;59.93
35577;BME280;21680;52.400;16.920;2023-03-18T04:15:13;100633.27;;;2.43;59.93
35577;BME280;21680;52.400;16.920;2023-03-18T04:17:40;100630.77;;;2.44;59.97
35577;BME280;21680;52.400;16.920;2023-03-18T04:20:06;100633.42;;;2.45;60.08
35577;BME280;21680;52.400;16.920;2023-03-18T04:22:32;100631.83;;;2.46;60.09
35577;BME280;21680;52.400;16.920;2023-03-18T04:24:58;100629.87;;;2.48;60.12
35577;BME280;21680;52.400;16.920;2023-03-18T04:27:24;100627.23;;;2.47;59.91
35577;BME280;21680;52.400;16.920;2023-03-18T04:29:49;100628.10;;;2.48;60.16
35577;BME280;21680;52.400;16.920;2023-03-18T04:32:15;100626.68;;;2.48;60.14
35577;BME280;21680;52.400;16.920;2023-03-18T04:34:40;100622.45;;;2.49;60.05
35577;BME280;21680;52.400;16.920;2023-03-18T04:37:05;100627.02;;;2.49;60.11
35577;BME280;21680;52.400;16.920;2023-03-18T04:39:31;100626.66;;;2.51;60.19
35577;BME280;21680;52.400;16.920;2023-03-18T04:41:57;100624.34;;;2.53;60.28
35577;BME280;21680;52.400;16.920;2023-03-18T04:44:23;100621.13;;;2.56;60.20
35577;BME280;21680;52.400;16.920;2023-03-18T04:46:50;100620.92;;;2.58;60.29
35577;BME280;21680;52.400;16.920;2023-03-18T04:49:16;100622.46;;;2.61;60.41
35577;BME280;21680;52.400;16.920;2023-03-18T04:51:42;100616.42;;;2.64;60.21
35577;BME280;21680;52.400;16.920;2023-03-18T04:54:07;100616.92;;;2.66;60.38
35577;BME280;21680;52.400;16.920;2023-03-18T04:56:33;100621.30;;;2.68;60.30
35577;BME280;21680;52.400;16.920;2023-03-18T04:58:59;100617.05;;;2.71;60.59
35577;BME280;21680;52.400;16.920;2023-03-18T05:01:25;100616.66;;;2.73;60.50
35577;BME280;21680;52.400;16.920;2023-03-18T05:03:50;100617.52;;;2.75;60.40
35577;BME280;21680;52.400;16.920;2023-03-18T05:06:26;100617.50;;;2.77;60.34
35577;BME280;21680;52.400;16.920;2023-03-18T05:08:53;100613.43;;;2.78;60.55
35577;BME280;21680;52.400;16.920;2023-03-18T05:11:19;100619.08;;;2.78;60.48
35577;BME280;21680;52.400;16.920;2023-03-18T05:13:46;100622.42;;;2.78;60.55
35577;BME280;21680;52.400;16.920;2023-03-18T05:16:11;100628.79;;;2.78;60.45
35577;BME280;21680;52.400;16.920;2023-03-18T05:18:38;100634.09;;;2.78;60.22
35577;BME280;21680;52.400;16.920;2023-03-18T05:21:05;100629.14;;;2.78;60.37
35577;BME280;21680;52.400;16.920;2023-03-18T05:23:31;100631.79;;;2.78;60.55
35577;BME280;21680;52.400;16.920;2023-03-18T05:25:57;100635.48;;;2.78;60.60
35577;BME280;21680;52.400;16.920;2023-03-18T05:28:23;100629.65;;;2.79;60.50
35577;BME280;21680;52.400;16.920;2023-03-18T05:30:48;100622.06;;;2.79;60.46
35577;BME280;21680;52.400;16.920;2023-03-18T05:33:13;100620.46;;;2.81;60.33
35577;BME280;21680;52.400;16.920;2023-03-18T05:35:39;100620.98;;;2.82;60.55
35577;BME280;21680;52.400;16.920;2023-03-18T05:38:04;100622.55;;;2.83;60.47
35577;BME280;21680;52.400;16.920;2023-03-18T05:40:31;100623.76;;;2.85;60.73
35577;BME280;21680;52.400;16.920;2023-03-18T05:42:56;100619.33;;;2.87;60.75
35577;BME280;21680;52.400;16.920;2023-03-18T05:45:22;100625.81;;;2.89;60.68
35577;BME280;21680;52.400;16.920;2023-03-18T05:47:48;100620.31;;;2.92;60.64
35577;BME280;21680;52.400;16.920;2023-03-18T05:50:32;100623.29;;;2.95;60.71
35577;BME280;21680;52.400;16.920;2023-03-18T05:53:00;100621.67;;;2.97;60.74
35577;BME280;21680;52.400;16.920;2023-03-18T05:55:27;100619.71;;;2.98;60.76
35577;BME280;21680;52.400;16.920;2023-03-18T05:57:54;100615.99;;;3.00;60.80
35577;BME280;21680;52.400;16.920;2023-03-18T06:00:20;100614.55;;;3.02;60.90
35577;BME280;21680;52.400;16.920;2023-03-18T06:02:45;100612.95;;;3.03;60.76
35577;BME280;21680;52.400;16.920;2023-03-18T06:05:11;100617.48;;;3.07;60.81
35577;BME280;21680;52.400;16.920;2023-03-18T06:07:37;100613.73;;;3.10;60.90
35577;BME280;21680;52.400;16.920;2023-03-18T06:10:04;100612.08;;;3.14;60.75
35577;BME280;21680;52.400;16.920;2023-03-18T06:12:29;100617.16;;;3.18;60.78
35577;BME280;21680;52.400;16.920;2023-03-18T06:14:55;100621.15;;;3.22;60.95
35577;BME280;21680;52.400;16.920;2023-03-18T06:17:20;100623.21;;;3.26;60.82
35577;BME280;21680;52.400;16.920;2023-03-18T06:19:46;100621.23;;;3.29;60.77
35577;BME280;21680;52.400;16.920;2023-03-18T06:22:13;100622.95;;;3.33;60.84
35577;BME280;21680;52.400;16.920;2023-03-18T06:24:40;100617.61;;;3.36;60.80
35577;BME280;21680;52.400;16.920;2023-03-18T06:27:05;100616.51;;;3.39;60.81
35577;BME280;21680;52.400;16.920;2023-03-18T06:29:32;100616.11;;;3.41;60.84
35577;BME280;21680;52.400;16.920;2023-03-18T06:31:57;100621.73;;;3.43;60.74
35577;BME280;21680;52.400;16.920;2023-03-18T06:34:23;100625.59;;;3.45;60.54
35577;BME280;21680;52.400;16.920;2023-03-18T06:36:49;100629.63;;;3.47;60.61
35577;BME280;21680;52.400;16.920;2023-03-18T06:39:15;100624.62;;;3.51;60.87
35577;BME280;21680;52.400;16.920;2023-03-18T06:41:40;100633.02;;;3.56;60.60
35577;BME280;21680;52.400;16.920;2023-03-18T06:44:06;100635.60;;;3.61;60.72
35577;BME280;21680;52.400;16.920;2023-03-18T06:46:31;100637.64;;;3.67;60.77
35577;BME280;21680;52.400;16.920;2023-03-18T06:48:57;100635.06;;;3.73;60.81
35577;BME280;21680;52.400;16.920;2023-03-18T06:51:22;100633.39;;;3.78;60.70
35577;BME280;21680;52.400;16.920;2023-03-18T06:53:48;100627.14;;;3.83;60.68
35577;BME280;21680;52.400;16.920;2023-03-18T06:56:13;100627.58;;;3.88;60.86
35577;BME280;21680;52.400;16.920;2023-03-18T06:58:41;100629.08;;;3.94;60.81
35577;BME280;21680;52.400;16.920;2023-03-18T07:01:07;100628.80;;;4.00;60.65
35577;BME280;21680;52.400;16.920;2023-03-18T07:03:33;100628.70;;;4.05;60.78
35577;BME280;21680;52.400;16.920;2023-03-18T07:05:58;100633.55;;;4.11;60.86
35577;BME280;21680;52.400;16.920;2023-03-18T07:08:24;100635.22;;;4.17;60.78
35577;BME280;21680;52.400;16.920;2023-03-18T07:10:52;100635.29;;;4.23;60.94
35577;BME280;21680;52.400;16.920;2023-03-18T07:13:18;100636.95;;;4.30;60.83
35577;BME280;21680;52.400;16.920;2023-03-18T07:15:44;100639.50;;;4.35;60.80
35577;BME280;21680;52.400;16.920;2023-03-18T07:18:10;100633.93;;;4.40;60.81
35577;BME280;21680;52.400;16.920;2023-03-18T07:20:36;100638.27;;;4.45;60.78
35577;BME280;21680;52.400;16.920;2023-03-18T07:23:02;100638.35;;;4.50;60.72
35577;BME280;21680;52.400;16.920;2023-03-18T07:25:28;100637.89;;;4.56;60.60
35577;BME280;21680;52.400;16.920;2023-03-18T07:27:56;100637.41;;;4.62;60.64
35577;BME280;21680;52.400;16.920;2023-03-18T07:30:21;100633.74;;;4.68;60.60
35577;BME280;21680;52.400;16.920;2023-03-18T07:32:47;100635.77;;;4.73;60.62
35577;BME280;21680;52.400;16.920;2023-03-18T07:35:13;100633.35;;;4.80;60.57
35577;BME280;21680;52.400;16.920;2023-03-18T07:37:40;100634.23;;;4.87;60.65
35577;BME280;21680;52.400;16.920;2023-03-18T07:40:07;100635.34;;;4.95;60.44
35577;BME280;21680;52.400;16.920;2023-03-18T07:42:33;100631.08;;;5.04;60.60
35577;BME280;21680;52.400;16.920;2023-03-18T07:44:58;100634.08;;;5.12;60.28
35577;BME280;21680;52.400;16.920;2023-03-18T07:47:24;100631.59;;;5.20;60.32
35577;BME280;21680;52.400;16.920;2023-03-18T07:49:49;100633.67;;;5.30;60.36
35577;BME280;21680;52.400;16.920;2023-03-18T07:52:16;100639.84;;;5.39;60.31
35577;BME280;21680;52.400;16.920;2023-03-18T07:54:42;100643.35;;;5.48;60.31
35577;BME280;21680;52.400;16.920;2023-03-18T07:57:08;100644.22;;;5.57;60.18
35577;BME280;21680;52.400;16.920;2023-03-18T07:59:34;100645.06;;;5.67;60.11
35577;BME280;21680;52.400;16.920;2023-03-18T08:02:01;100645.50;;;5.78;60.22
35577;BME280;21680;52.400;16.920;2023-03-18T08:04:27;100642.89;;;5.91;60.12
35577;BME280;21680;52.400;16.920;2023-03-18T08:06:53;100646.64;;;6.06;60.13
35577;BME280;21680;52.400;16.920;2023-03-18T08:09:19;100641.80;;;6.21;59.85
35577;BME280;21680;52.400;16.920;2023-03-18T08:11:45;100644.55;;;6.39;59.98
35577;BME280;21680;52.400;16.920;2023-03-18T08:14:10;100641.84;;;6.54;59.55
35577;BME280;21680;52.400;16.920;2023-03-18T08:16:36;100644.12;;;6.67;59.48
35577;BME280;21680;52.400;16.920;2023-03-18T08:19:01;100644.42;;;6.82;59.59
35577;BME280;21680;52.400;16.920;2023-03-18T08:21:28;100644.05;;;6.95;59.19
35577;BME280;21680;52.400;16.920;2023-03-18T08:23:54;100641.38;;;7.08;58.99
35577;BME280;21680;52.400;16.920;2023-03-18T08:26:20;100644.72;;;7.21;58.94
35577;BME280;21680;52.400;16.920;2023-03-18T08:28:46;100645.92;;;7.35;58.93
35577;BME280;21680;52.400;16.920;2023-03-18T08:31:11;100639.31;;;7.47;58.80
35577;BME280;21680;52.400;16.920;2023-03-18T08:33:38;100642.45;;;7.60;58.57
35577;BME280;21680;52.400;16.920;2023-03-18T08:36:05;100641.66;;;7.74;58.63
35577;BME280;21680;52.400;16.920;2023-03-18T08:38:30;100640.65;;;7.88;58.37
35577;BME280;21680;52.400;16.920;2023-03-18T08:40:56;100642.02;;;8.01;58.44
35577;BME280;21680;52.400;16.920;2023-03-18T08:43:22;100640.02;;;8.08;58.13
35577;BME280;21680;52.400;16.920;2023-03-18T08:45:52;100632.87;;;8.14;57.75
35577;BME280;21680;52.400;16.920;2023-03-18T08:48:18;100633.29;;;8.17;57.56
35577;BME280;21680;52.400;16.920;2023-03-18T08:50:43;100633.65;;;8.22;56.82
35577;BME280;21680;52.400;16.920;2023-03-18T08:53:08;100636.05;;;8.30;57.14
35577;BME280;21680;52.400;16.920;2023-03-18T08:55:35;100633.05;;;8.41;57.15
35577;BME280;21680;52.400;16.920;2023-03-18T08:58:02;100634.67;;;8.50;56.95
35577;BME280;21680;52.400;16.920;2023-03-18T09:00:29;100637.33;;;8.56;56.65
35577;BME280;21680;52.400;16.920;2023-03-18T09:02:55;100642.54;;;8.65;56.72
35577;BME280;21680;52.400;16.920;2023-03-18T09:05:21;100636.46;;;8.75;56.35
35577;BME280;21680;52.400;16.920;2023-03-18T09:07:46;100634.27;;;8.81;56.35
35577;BME280;21680;52.400;16.920;2023-03-18T09:10:13;100636.50;;;8.89;56.21
35577;BME280;21680;52.400;16.920;2023-03-18T09:12:41;100637.99;;;8.96;56.22
35577;BME280;21680;52.400;16.920;2023-03-18T09:15:08;100634.34;;;9.04;55.85
35577;BME280;21680;52.400;16.920;2023-03-18T09:17:35;100639.30;;;9.14;55.85
35577;BME280;21680;52.400;16.920;2023-03-18T09:20:06;100637.89;;;9.23;55.71
35577;BME280;21680;52.400;16.920;2023-03-18T09:22:33;100638.02;;;9.33;55.60
35577;BME280;21680;52.400;16.920;2023-03-18T09:24:58;100629.04;;;9.40;55.56
35577;BME280;21680;52.400;16.920;2023-03-18T09:27:24;100629.92;;;9.49;55.40
35577;BME280;21680;52.400;16.920;2023-03-18T09:29:50;100633.36;;;9.57;55.27
35577;BME280;21680;52.400;16.920;2023-03-18T09:32:16;100631.88;;;9.63;55.17
35577;BME280;21680;52.400;16.920;2023-03-18T09:34:42;100628.09;;;9.68;55.08
35577;BME280;21680;52.400;16.920;2023-03-18T09:37:09;100632.73;;;9.73;54.90
35577;BME280;21680;52.400;16.920;2023-03-18T09:39:35;100632.66;;;9.74;54.25
35577;BME280;21680;52.400;16.920;2023-03-18T09:42:27;100632.11;;;9.79;54.46
35577;BME280;21680;52.400;16.920;2023-03-18T09:45:00;100630.39;;;9.91;54.45
35577;BME280;21680;52.400;16.920;2023-03-18T09:53:50;100630.60;;;10.21;54.00
35577;BME280;21680;52.400;16.920;2023-03-18T09:56:21;100628.84;;;10.29;53.83
35577;BME280;21680;52.400;16.920;2023-03-18T09:58:59;100624.01;;;10.33;53.65
35577;BME280;21680;52.400;16.920;2023-03-18T10:01:28;100622.33;;;10.39;53.47
35577;BME280;21680;52.400;16.920;2023-03-18T10:04:03;100623.54;;;10.43;53.43
35577;BME280;21680;52.400;16.920;2023-03-18T10:06:32;100621.80;;;10.54;53.35
35577;BME280;21680;52.400;16.920;2023-03-18T10:09:19;100625.09;;;10.65;53.24
35577;BME280;21680;52.400;16.920;2023-03-18T10:11:50;100624.48;;;10.75;52.92
35577;BME280;21680;52.400;16.920;2023-03-18T10:17:33;100623.94;;;10.83;52.55
35577;BME280;21680;52.400;16.920;2023-03-18T10:19:56;100621.11;;;10.94;52.32
35577;BME280;21680;52.400;16.920;2023-03-18T10:25:18;100614.66;;;11.02;52.05
35577;BME280;21680;52.400;16.920;2023-03-18T10:31:02;100612.23;;;11.16;51.36
35577;BME280;21680;52.400;16.920;2023-03-18T10:33:40;100611.31;;;11.20;51.23
35577;BME280;21680;52.400;16.920;2023-03-18T10:36:54;100608.77;;;11.21;50.85
35577;BME280;21680;52.400;16.920;2023-03-18T10:39:00;100604.27;;;11.29;50.99
35577;BME280;21680;52.400;16.920;2023-03-18T10:41:33;100607.63;;;11.37;50.91
35577;BME280;21680;52.400;16.920;2023-03-18T10:44:58;100599.55;;;11.50;50.79
35577;BME280;21680;52.400;16.920;2023-03-18T10:47:02;100598.83;;;11.68;50.90
35577;BME280;21680;52.400;16.920;2023-03-18T10:49:36;100595.79;;;11.84;50.85
35577;BME280;21680;52.400;16.920;2023-03-18T10:52:14;100596.79;;;11.95;50.81
35577;BME280;21680;52.400;16.920;2023-03-18T10:54:44;100592.16;;;12.06;50.70
35577;BME280;21680;52.400;16.920;2023-03-18T10:57:17;100590.11;;;12.11;50.64
35577;BME280;21680;52.400;16.920;2023-03-18T10:59:44;100587.40;;;12.15;50.58
35577;BME280;21680;52.400;16.920;2023-03-18T11:02:34;100588.61;;;12.23;50.45
35577;BME280;21680;52.400;16.920;2023-03-18T11:05:18;100589.29;;;12.30;50.43
35577;BME280;21680;52.400;16.920;2023-03-18T11:07:59;100589.44;;;12.38;50.42
35577;BME280;21680;52.400;16.920;2023-03-18T11:10:32;100583.80;;;12.43;50.32
35577;BME280;21680;52.400;16.920;2023-03-18T11:13:00;100582.30;;;12.55;50.34
35577;BME280;21680;52.400;16.920;2023-03-18T11:15:37;100582.30;;;12.65;50.24
35577;BME280;21680;52.400;16.920;2023-03-18T11:18:04;100584.56;;;12.73;50.18
35577;BME280;21680;52.400;16.920;2023-03-18T11:20:36;100585.10;;;12.83;50.10
35577;BME280;21680;52.400;16.920;2023-03-18T11:26:18;100585.85;;;12.85;49.27
35577;BME280;21680;52.400;16.920;2023-03-18T11:28:44;100586.45;;;12.81;49.25
35577;BME280;21680;52.400;16.920;2023-03-18T11:31:15;100583.69;;;12.95;49.47
35577;BME280;21680;52.400;16.920;2023-03-18T11:33:42;100580.98;;;13.08;49.16
35577;BME280;21680;52.400;16.920;2023-03-18T11:36:11;100580.23;;;13.19;49.17
35577;BME280;21680;52.400;16.920;2023-03-18T11:38:38;100582.72;;;13.32;49.02
35577;BME280;21680;52.400;16.920;2023-03-18T11:41:14;100581.34;;;13.38;48.93
35577;BME280;21680;52.400;16.920;2023-03-18T11:44:17;100584.27;;;13.44;48.64
35577;BME280;21680;52.400;16.920;2023-03-18T11:46:53;100585.96;;;13.48;48.42
35577;BME280;21680;52.400;16.920;2023-03-18T11:49:22;100585.83;;;13.48;47.90
35577;BME280;21680;52.400;16.920;2023-03-18T12:06:09;100573.63;;;14.37;46.72
35577;BME280;21680;52.400;16.920;2023-03-18T12:17:16;100585.60;;;15.14;46.11
35577;BME280;21680;52.400;16.920;2023-03-18T12:22:51;100583.71;;;15.35;45.58
35577;BME280;21680;52.400;16.920;2023-03-18T12:28:09;100580.34;;;15.37;45.33
35577;BME280;21680;52.400;16.920;2023-03-18T12:33:56;100586.04;;;15.65;45.19
35577;BME280;21680;52.400;16.920;2023-03-18T12:44:59;100577.20;;;15.66;44.89
35577;BME280;21680;52.400;16.920;2023-03-18T12:47:43;100581.86;;;15.77;44.90
35577;BME280;21680;52.400;16.920;2023-03-18T12:50:19;100582.48;;;15.95;44.81
35577;BME280;21680;52.400;16.920;2023-03-18T12:52:52;100586.58;;;16.11;44.39
35577;BME280;21680;52.400;16.920;2023-03-18T12:55:27;100583.59;;;16.18;44.22
35577;BME280;21680;52.400;16.920;2023-03-18T12:58:02;100582.58;;;16.20;43.02
35577;BME280;21680;52.400;16.920;2023-03-18T13:00:54;100580.42;;;16.20;43.50
35577;BME280;21680;52.400;16.920;2023-03-18T13:03:35;100577.92;;;16.17;43.26
35577;BME280;21680;52.400;16.920;2023-03-18T13:11:37;100574.20;;;16.23;42.79
35577;BME280;21680;52.400;16.920;2023-03-18T13:14:15;100576.34;;;16.32;42.94
35577;BME280;21680;52.400;16.920;2023-03-18T13:16:42;100578.64;;;16.25;42.68
35577;BME280;21680;52.400;16.920;2023-03-18T13:19:08;100581.58;;;16.16;42.76
35577;BME280;21680;52.400;16.920;2023-03-18T13:21:41;100584.29;;;16.00;42.61
35577;BME280;21680;52.400;16.920;2023-03-18T13:24:35;100585.86;;;15.76;42.19
35577;BME280;21680;52.400;16.920;2023-03-18T13:30:11;100581.55;;;15.38;42.00
35577;BME280;21680;52.400;16.920;2023-03-18T13:43:50;100585.27;;;15.33;42.00
35577;BME280;21680;52.400;16.920;2023-03-18T13:46:24;100580.08;;;15.24;41.74
35577;BME280;21680;52.400;16.920;2023-03-18T13:48:55;100581.48;;;15.19;42.01
35577;BME280;21680;52.400;16.920;2023-03-18T13:53:48;100582.77;;;15.24;42.13
35577;BME280;21680;52.400;16.920;2023-03-18T13:56:48;100585.06;;;15.33;42.13
35577;BME280;21680;52.400;16.920;2023-03-18T14:03:01;100591.02;;;15.75;42.31
35577;BME280;21680;52.400;16.920;2023-03-18T14:05:35;100590.89;;;15.76;42.25
35577;BME280;21680;52.400;16.920;2023-03-18T14:08:31;100590.05;;;15.84;42.38
35577;BME280;21680;52.400;16.920;2023-03-18T14:13:57;100583.33;;;16.14;42.47
35577;BME280;21680;52.400;16.920;2023-03-18T14:19:13;100580.05;;;16.51;42.22
35577;BME280;21680;52.400;16.920;2023-03-18T14:21:50;100581.08;;;16.50;41.99
35577;BME280;21680;52.400;16.920;2023-03-18T14:26:47;100574.93;;;16.21;41.73
35577;BME280;21680;52.400;16.920;2023-03-18T14:29:42;100574.83;;;16.09;41.50
35577;BME280;21680;52.400;16.920;2023-03-18T14:37:57;100562.54;;;16.02;41.61
35577;BME280;21680;52.400;16.920;2023-03-18T14:40:25;100557.18;;;16.04;41.70